Etusivu
METAR-TAF:

METAR-TAF

Lentoasemat :

Dease Lake, Brittiläinen Kolumbia, Kanada

Leveyspiiri: 58-25-20N, Pituuspiiri: 130-01-53W, korkeus merenpinnasta: 803 m

Tämänhetkinen sää

Tämä raportti tehtiin 56 minuuttia sitten, kello 08.00 UTC
Tuuli 3 kn koillisesta, vaihdellen pohjoisen/koillisen ja idän välillä
Lämpötila -2°C
Kosteus 93%
Ilmanpaine 1020 hPa
Näkyvyys: 14.5 km
Muutamia pilviä 8000 ft:n korkeudessa

METAR: CYDL 210800Z AUTO 05003KT 020V090 9SM FEW080 M02/M03 A3012 RMK SLP222

Aika: 01:56 (08:56 UTC)

Sääennuste

Tämä raportti tehtiin 9 tuntia ja 18 minuuttia sitten, kello 23.38 UTC
Ennuste voimassa 21. päivästä klo 00 UTC - 21. päivään klo 02 UTC
Tuuli 5 kn lännestä/lounaasta
Näkyvyys: 10 km
Muutamia pilviä 4000 ft:n korkeudessa
Hajanaisia pilviä 8000 ft:n korkeudessa

TAF: CYDL 202338Z 2100/2102 24005KT P6SM FEW040 SCT080 RMK FCST BASED ON AUTO OBS. NXT FCST WILL BE ISSUED AT 211545Z

Säähavainnot ja -ennusteet yli 4000 lentoasemalta (METAR- ja TAF-raportit).

Käytössä olevat sääasemat on merkitty karttaan keltaisilla ja punaisilla pisteillä.

Aseta hiiri pisteen päälle nähdäksesi sääaseman nimen.

Klikkaa sitten nähdäksesi säähavainnot ja -ennusteet.

Kartan vaihtaminen: klikkaa mustalla rastilla varustettuja vihreitä pisteitä, niin voit zoomata sisään; viivalla varustettua vihreää pistettä, niin voit zoomata ulos tai vihreitä nuolia, niin pääset viereisille kartoille.


METAR-TAF: